PWSweather.com
Personal Weather Stations
Station Observations
CWOPDW0920
Cole Harbour, Halifax, NS

Cole HarbourHalifax, NS

Lat: 44.679792, Lon: -63.465421

Elevation: 112

Station Type: WMR968

http://www.HRMWeather.com

High Low Average
Temperature 51.3°F10.7°C 38.5°F3.6°C 44.3°F6.8°C
Dew Point 45.9°F7.7°C 35.8°F2.1°C 41.5°F5.3°C
Winds 14.0 mph 22.5 kmh Calm Calm 5.0 mph WSW8.0 kmh WSW
Wind Gusts 20.0 mph32.2 kmh -- 8.0 mph12.9 kmh
Humidity 100% 79% 90%
Pressure 30.03 in1016.9 mb 29.77 in1008.1 mb -
Precipitation 0.00 in0.0 mm - -
Hour Temp Dew Point Humidity Winds Wind Gusts Pressure Precip Precip Rate Daily Precip Total
01:00 AM 47.3°F8.5°C 45.4°F7.4°C 93% 7.0 mph SW11.3 kmh SW 8.0 mph12.9 kmh 29.77 in1008.1 mb 0.00 in0.0 mm 0.00 in/hr0.0 mm/hr 0.00 in0.0 mm
02:00 AM 45.9°F7.7°C 44.0°F6.7°C 93% Calm Calm -- 29.80 in1009.1 mb 0.00 in0.0 mm 0.00 in/hr0.0 mm/hr 0.00 in0.0 mm
03:00 AM 42.6°F5.9°C 41.0°F5.0°C 94% Calm Calm -- 29.80 in1009.1 mb 0.00 in0.0 mm 0.00 in/hr0.0 mm/hr 0.00 in0.0 mm
04:00 AM 42.7°F5.9°C 41.4°F5.2°C 95% Calm Calm -- 29.80 in1009.1 mb 0.00 in0.0 mm 0.00 in/hr0.0 mm/hr 0.00 in0.0 mm
05:00 AM 41.4°F5.2°C 40.3°F4.6°C 96% Calm Calm -- 29.82 in1009.8 mb 0.00 in0.0 mm 0.00 in/hr0.0 mm/hr 0.00 in0.0 mm
06:00 AM 39.3°F4.1°C 38.5°F3.6°C 97% Calm Calm -- 29.82 in1009.8 mb 0.00 in0.0 mm 0.00 in/hr0.0 mm/hr 0.00 in0.0 mm
07:00 AM 38.8°F3.8°C 38.3°F3.5°C 98% Calm Calm -- 29.86 in1011.2 mb 0.00 in0.0 mm 0.00 in/hr0.0 mm/hr 0.00 in0.0 mm
08:00 AM 41.0°F5.0°C 41.0°F5.0°C 100% Calm Calm -- 29.88 in1011.9 mb 0.00 in0.0 mm 0.00 in/hr0.0 mm/hr 0.00 in0.0 mm
09:00 AM 41.2°F5.1°C 40.9°F4.9°C 99% Calm Calm -- 29.88 in1011.9 mb 0.00 in0.0 mm 0.00 in/hr0.0 mm/hr 0.00 in0.0 mm
10:00 AM 46.1°F7.8°C 45.9°F7.7°C 99% 5.0 mph NW8.0 kmh NW 8.0 mph12.9 kmh 29.91 in1012.9 mb 0.00 in0.0 mm 0.00 in/hr0.0 mm/hr 0.00 in0.0 mm
11:00 AM 48.5°F9.2°C 45.7°F7.6°C 90% 9.0 mph N14.5 kmh N 15.0 mph24.1 kmh 29.94 in1013.9 mb 0.00 in0.0 mm 0.00 in/hr0.0 mm/hr 0.00 in0.0 mm
12:00 PM 50.2°F10.1°C 44.9°F7.2°C 82% 6.0 mph NNW9.7 kmh NNW 9.0 mph14.5 kmh 29.94 in1013.9 mb 0.00 in0.0 mm 0.00 in/hr0.0 mm/hr 0.00 in0.0 mm
01:00 PM 51.3°F10.7°C 45.0°F7.2°C 79% 9.0 mph N14.5 kmh N 10.0 mph16.1 kmh 29.94 in1013.9 mb 0.00 in0.0 mm 0.00 in/hr0.0 mm/hr 0.00 in0.0 mm
02:00 PM 49.6°F9.8°C 43.7°F6.5°C 80% 9.0 mph N14.5 kmh N 12.0 mph19.3 kmh 29.91 in1012.9 mb 0.00 in0.0 mm 0.00 in/hr0.0 mm/hr 0.00 in0.0 mm
03:00 PM 48.4°F9.1°C 42.5°F5.8°C 80% 12.0 mph N19.3 kmh N 16.0 mph25.7 kmh 29.94 in1013.9 mb 0.00 in0.0 mm 0.00 in/hr0.0 mm/hr 0.00 in0.0 mm
04:00 PM 46.1°F7.8°C 40.6°F4.8°C 81% 14.0 mph N22.5 kmh N 20.0 mph32.2 kmh 29.97 in1014.9 mb 0.00 in0.0 mm 0.00 in/hr0.0 mm/hr 0.00 in0.0 mm
05:00 PM 42.8°F6.0°C 38.3°F3.5°C 84% 9.0 mph N14.5 kmh N 16.0 mph25.7 kmh 29.97 in1014.9 mb 0.00 in0.0 mm 0.00 in/hr0.0 mm/hr 0.00 in0.0 mm
06:00 PM 40.1°F4.5°C 36.2°F2.3°C 86% 8.0 mph NNW12.9 kmh NNW 12.0 mph19.3 kmh 30.00 in1015.9 mb 0.00 in0.0 mm 0.00 in/hr0.0 mm/hr 0.00 in0.0 mm
07:00 PM 38.5°F3.6°C 35.8°F2.1°C 90% 8.0 mph NNW12.9 kmh NNW 20.0 mph32.2 kmh 30.03 in1016.9 mb 0.00 in0.0 mm 0.00 in/hr0.0 mm/hr 0.00 in0.0 mm
08:00 PM 37.4°F3.0°C 35.0°F1.7°C 91% 7.0 mph NNW11.3 kmh NNW 7.0 mph11.3 kmh 30.06 in1017.9 mb 0.00 in0.0 mm 0.00 in/hr0.0 mm/hr 0.00 in0.0 mm
09:00 PM 38.1°F3.4°C 35.4°F1.9°C 90% 10.0 mph N16.1 kmh N 12.0 mph19.3 kmh 30.06 in1017.9 mb 0.00 in0.0 mm 0.00 in/hr0.0 mm/hr 0.00 in0.0 mm
10:00 PM 36.5°F2.5°C 33.3°F0.7°C 88% 9.0 mph N14.5 kmh N 14.0 mph22.5 kmh 30.09 in1019.0 mb 0.00 in0.0 mm 0.00 in/hr0.0 mm/hr 0.00 in0.0 mm
11:00 PM 35.4°F1.9°C 33.3°F0.7°C 92% 5.0 mph N8.0 kmh N 5.0 mph8.0 kmh 30.09 in1019.0 mb 0.00 in0.0 mm 0.00 in/hr0.0 mm/hr 0.00 in0.0 mm